createdAt,value
2024-04-21T00:00:14.024Z,95995.00
2024-04-21T00:01:12.611Z,95993.00
2024-04-21T00:02:12.531Z,95992.00
2024-04-21T00:03:12.671Z,95990.00
2024-04-21T00:04:12.736Z,95989.00
2024-04-21T00:05:12.659Z,95990.00
2024-04-21T00:06:12.682Z,95991.00
2024-04-21T00:07:12.765Z,95990.00
2024-04-21T00:08:12.812Z,95990.00
2024-04-21T00:09:12.904Z,95989.00
2024-04-21T00:10:13.071Z,95989.00
2024-04-21T00:11:13.177Z,95989.00
2024-04-21T00:12:13.131Z,95986.00
2024-04-21T00:13:13.274Z,95987.00
2024-04-21T00:14:13.264Z,95985.00
2024-04-21T00:15:18.358Z,95985.00
2024-04-21T00:16:13.469Z,95983.00
2024-04-21T00:17:13.354Z,95983.00
2024-04-21T00:18:13.330Z,95983.00
2024-04-21T00:19:14.382Z,95979.00
2024-04-21T00:20:13.374Z,95979.00
2024-04-21T00:21:13.338Z,95981.00
2024-04-21T00:22:13.403Z,95978.00
2024-04-21T00:23:13.351Z,95977.00
2024-04-21T00:24:13.361Z,95975.00
2024-04-21T00:25:13.426Z,95975.00
2024-04-21T00:26:13.407Z,95972.00
2024-04-21T00:27:13.484Z,95972.00
2024-04-21T00:28:13.635Z,95971.00
2024-04-21T00:29:13.624Z,95970.00
2024-04-21T00:30:13.678Z,95967.00
2024-04-21T00:31:13.812Z,95966.00
2024-04-21T00:32:13.821Z,95965.00
2024-04-21T00:33:13.971Z,95966.00
2024-04-21T00:34:14.002Z,95964.00
2024-04-21T00:35:14.048Z,95964.00
2024-04-21T00:36:14.117Z,95963.00
2024-04-21T00:37:14.299Z,95963.00
2024-04-21T00:38:14.250Z,95961.00
2024-04-21T00:39:14.320Z,95959.00
2024-04-21T00:40:14.468Z,95959.00
2024-04-21T00:41:14.470Z,95958.00
2024-04-21T00:42:14.513Z,95957.00
2024-04-21T00:43:14.770Z,95956.00
2024-04-21T00:44:14.660Z,95955.00
2024-04-21T00:45:22.701Z,95955.00
2024-04-21T00:46:15.762Z,95955.00
2024-04-21T00:47:14.772Z,95955.00
2024-04-21T00:48:14.722Z,95954.00
2024-04-21T00:49:14.785Z,95951.00
2024-04-21T00:50:14.719Z,95950.00
2024-04-21T00:51:15.750Z,95949.00
2024-04-21T00:52:14.843Z,95947.00
2024-04-21T00:53:14.759Z,95949.00
2024-04-21T00:54:14.743Z,95946.00
2024-04-21T00:55:14.809Z,95946.00
2024-04-21T00:56:14.750Z,95947.00
2024-04-21T00:57:14.747Z,95947.00
2024-04-21T00:58:14.809Z,95945.00
2024-04-21T00:59:14.875Z,95946.00
2024-04-21T01:00:14.874Z,95946.00
2024-04-21T01:01:14.977Z,95948.00
2024-04-21T01:02:15.053Z,95946.00
2024-04-21T01:03:15.072Z,95947.00
2024-04-21T01:04:15.214Z,95947.00
2024-04-21T01:05:15.263Z,95944.00
2024-04-21T01:06:15.273Z,95947.00
2024-04-21T01:07:15.454Z,95949.00
2024-04-21T01:08:15.392Z,95947.00
2024-04-21T01:09:15.503Z,95947.00
2024-04-21T01:10:15.544Z,95945.00
2024-04-21T01:11:15.637Z,95943.00
2024-04-21T01:12:15.678Z,95944.00
2024-04-21T01:13:15.829Z,95944.00
2024-04-21T01:14:15.838Z,95944.00
2024-04-21T01:15:15.890Z,95945.00
2024-04-21T01:16:16.108Z,95943.00
2024-04-21T01:17:16.082Z,95943.00
2024-04-21T01:18:16.099Z,95941.00
2024-04-21T01:19:16.295Z,95938.00
2024-04-21T01:20:16.231Z,95938.00
2024-04-21T01:21:16.303Z,95936.00
2024-04-21T01:22:16.383Z,95932.00
2024-04-21T01:23:23.634Z,95931.00
2024-04-21T01:24:23.636Z,95930.00
2024-04-21T01:25:23.677Z,95929.00
2024-04-21T01:26:23.642Z,95928.00
2024-04-21T01:27:23.624Z,95925.00
2024-04-21T01:28:23.660Z,95927.00
2024-04-21T01:29:23.628Z,95926.00
2024-04-21T01:30:23.641Z,95924.00
2024-04-21T01:31:23.677Z,95922.00
2024-04-21T01:32:23.652Z,95920.00
2024-04-21T01:33:23.700Z,95923.00
2024-04-21T01:34:23.629Z,95922.00
2024-04-21T01:35:23.693Z,95921.00
2024-04-21T01:36:23.655Z,95922.00
2024-04-21T01:37:23.636Z,95921.00
2024-04-21T01:38:23.727Z,95922.00
2024-04-21T01:39:23.659Z,95918.00
2024-04-21T01:40:23.741Z,95919.00
2024-04-21T01:41:23.670Z,95916.00
2024-04-21T01:42:23.690Z,95913.00
2024-04-21T01:43:24.126Z,95915.00
2024-04-21T01:44:23.666Z,95913.00
2024-04-21T01:45:23.664Z,95912.00
2024-04-21T01:46:23.679Z,95913.00
2024-04-21T01:47:23.783Z,95911.00
2024-04-21T01:48:23.694Z,95912.00
2024-04-21T01:49:23.738Z,95910.00
2024-04-21T01:50:23.686Z,95909.00
2024-04-21T01:51:23.663Z,95910.00
2024-04-21T01:52:23.738Z,95908.00
2024-04-21T01:53:23.693Z,95908.00
2024-04-21T01:54:23.683Z,95904.00
2024-04-21T01:55:23.776Z,95903.00
2024-04-21T01:56:23.792Z,95903.00
2024-04-21T01:57:23.849Z,95901.00
2024-04-21T01:58:23.976Z,95901.00
2024-04-21T01:59:23.966Z,95899.00
2024-04-21T02:00:24.039Z,95899.00
2024-04-21T02:01:24.147Z,95900.00
2024-04-21T02:02:24.189Z,95896.00
2024-04-21T02:03:24.227Z,95898.00
2024-04-21T02:04:24.452Z,95900.00
2024-04-21T02:05:24.375Z,95897.00
2024-04-21T02:06:24.421Z,95898.00
2024-04-21T02:07:24.547Z,95897.00
2024-04-21T02:08:24.556Z,95896.00
2024-04-21T02:09:24.643Z,95894.00
2024-04-21T02:10:24.762Z,95893.00
2024-04-21T02:11:24.786Z,95894.00
2024-04-21T02:12:24.816Z,95892.00
2024-04-21T02:13:24.904Z,95891.00
2024-04-21T02:14:24.962Z,95891.00
2024-04-21T02:15:25.031Z,95889.00
2024-04-21T02:16:25.122Z,95888.00
2024-04-21T02:17:25.294Z,95887.00
2024-04-21T02:18:25.243Z,95887.00
2024-04-21T02:19:28.306Z,95888.00
2024-04-21T02:20:25.447Z,95885.00
2024-04-21T02:21:25.346Z,95886.00
2024-04-21T02:22:25.404Z,95884.00
2024-04-21T02:23:25.338Z,95884.00
2024-04-21T02:24:25.353Z,95883.00
2024-04-21T02:25:25.412Z,95882.00
2024-04-21T02:26:25.337Z,95882.00
2024-04-21T02:27:25.393Z,95880.00
2024-04-21T02:28:25.360Z,95880.00
2024-04-21T02:29:26.274Z,95878.00
2024-04-21T02:30:26.574Z,95876.00
2024-04-21T02:31:25.431Z,95876.00
2024-04-21T02:32:25.388Z,95875.00
2024-04-21T02:33:25.403Z,95870.00
2024-04-21T02:34:25.414Z,95873.00
2024-04-21T02:35:25.343Z,95875.00
2024-04-21T02:36:25.343Z,95871.00
2024-04-21T02:37:25.424Z,95872.00
2024-04-21T02:38:25.343Z,95873.00
2024-04-21T02:39:25.405Z,95873.00
2024-04-21T02:40:25.423Z,95870.00
2024-04-21T02:41:25.355Z,95875.00
2024-04-21T02:42:25.337Z,95872.00
2024-04-21T02:43:25.414Z,95873.00
2024-04-21T02:44:25.348Z,95871.00
2024-04-21T02:45:25.347Z,95872.00
2024-04-21T02:46:25.413Z,95870.00
2024-04-21T02:47:25.336Z,95870.00
2024-04-21T02:48:25.342Z,95869.00
2024-04-21T02:49:25.390Z,95870.00
2024-04-21T02:50:25.357Z,95867.00
2024-04-21T02:51:25.372Z,95866.00
2024-04-21T02:52:25.455Z,95867.00
2024-04-21T02:53:25.515Z,95867.00
2024-04-21T02:54:25.581Z,95866.00
2024-04-21T02:55:25.712Z,95867.00
2024-04-21T02:56:25.749Z,95864.00
2024-04-21T02:57:25.816Z,95864.00
2024-04-21T02:58:25.897Z,95863.00
2024-04-21T02:59:27.593Z,95861.00
2024-04-21T03:00:25.905Z,95860.00
2024-04-21T03:01:26.057Z,95859.00
2024-04-21T03:02:26.055Z,95857.00
2024-04-21T03:03:26.055Z,95855.00
2024-04-21T03:04:26.044Z,95854.00
2024-04-21T03:05:25.943Z,95852.00
2024-04-21T03:06:25.941Z,95849.00
2024-04-21T03:07:25.930Z,95851.00
2024-04-21T03:08:25.925Z,95851.00
2024-04-21T03:09:25.937Z,95850.00
2024-04-21T03:10:25.981Z,95849.00
2024-04-21T03:11:25.951Z,95850.00
2024-04-21T03:12:25.947Z,95851.00
2024-04-21T03:13:25.962Z,95850.00
2024-04-21T03:14:25.926Z,95849.00
2024-04-21T03:15:25.941Z,95849.00
2024-04-21T03:16:25.987Z,95847.00
2024-04-21T03:17:26.064Z,95848.00
2024-04-21T03:18:25.980Z,95847.00
2024-04-21T03:19:26.004Z,95847.00
2024-04-21T03:20:25.988Z,95849.00
2024-04-21T03:21:25.973Z,95849.00
2024-04-21T03:22:25.976Z,95850.00
2024-04-21T03:23:25.967Z,95849.00
2024-04-21T03:24:25.958Z,95851.00
2024-04-21T03:25:26.001Z,95850.00
2024-04-21T03:26:25.962Z,95851.00
2024-04-21T03:27:25.963Z,95851.00
2024-04-21T03:28:25.971Z,95849.00
2024-04-21T03:29:25.952Z,95848.00
2024-04-21T03:30:25.975Z,95846.00
2024-04-21T03:31:25.994Z,95843.00
2024-04-21T03:32:26.020Z,95842.00
2024-04-21T03:33:26.082Z,95841.00
2024-04-21T03:34:26.013Z,95841.00
2024-04-21T03:35:25.967Z,95838.00
2024-04-21T03:36:25.966Z,95838.00
2024-04-21T03:37:26.086Z,95836.00
2024-04-21T03:38:25.958Z,95837.00
2024-04-21T03:39:26.022Z,95835.00
2024-04-21T03:40:26.065Z,95833.00
2024-04-21T03:41:25.956Z,95833.00
2024-04-21T03:42:25.974Z,95833.00
2024-04-21T03:43:25.998Z,95831.00
2024-04-21T03:44:25.962Z,95832.00
2024-04-21T03:45:25.955Z,95832.00
2024-04-21T03:46:26.033Z,95832.00
2024-04-21T03:47:26.110Z,95829.00
2024-04-21T03:48:25.983Z,95827.00
2024-04-21T03:49:26.018Z,95829.00
2024-04-21T03:50:25.965Z,95827.00
2024-04-21T03:51:25.965Z,95826.00
2024-04-21T03:52:26.118Z,95825.00
2024-04-21T03:53:26.096Z,95826.00
2024-04-21T03:54:26.168Z,95826.00
2024-04-21T03:55:26.297Z,95824.00
2024-04-21T03:56:26.271Z,95824.00
2024-04-21T03:57:26.353Z,95825.00
2024-04-21T03:58:26.488Z,95823.00
2024-04-21T03:59:26.471Z,95822.00
2024-04-21T04:00:26.561Z,95825.00
2024-04-21T04:01:26.751Z,95821.00
2024-04-21T04:02:26.679Z,95821.00
2024-04-21T04:03:26.825Z,95818.00
2024-04-21T04:04:26.986Z,95818.00
2024-04-21T04:05:26.883Z,95818.00
2024-04-21T04:06:26.932Z,95815.00
2024-04-21T04:07:27.063Z,95817.00
2024-04-21T04:08:27.074Z,95814.00
2024-04-21T04:09:27.116Z,95813.00
2024-04-21T04:10:27.212Z,95815.00
2024-04-21T04:11:27.261Z,95814.00
2024-04-21T04:12:27.323Z,95813.00
2024-04-21T04:13:27.414Z,95813.00
2024-04-21T04:14:27.430Z,95811.00
2024-04-21T04:15:27.491Z,95809.00
2024-04-21T04:16:27.581Z,95810.00
2024-04-21T04:17:27.709Z,95809.00
2024-04-21T04:18:27.770Z,95808.00
2024-04-21T04:19:27.758Z,95808.00
2024-04-21T04:20:27.805Z,95807.00
2024-04-21T04:21:27.863Z,95806.00
2024-04-21T04:22:27.963Z,95806.00
2024-04-21T04:23:27.980Z,95806.00
2024-04-21T04:24:28.054Z,95804.00
2024-04-21T04:25:28.141Z,95803.00
2024-04-21T04:26:28.152Z,95803.00
2024-04-21T04:27:28.242Z,95798.00
2024-04-21T04:28:28.351Z,95799.00
2024-04-21T04:29:28.338Z,95798.00
2024-04-21T04:30:28.411Z,95798.00
2024-04-21T04:31:28.485Z,95798.00
2024-04-21T04:32:28.566Z,95799.00
2024-04-21T04:33:36.009Z,95798.00
2024-04-21T04:34:35.943Z,95797.00
2024-04-21T04:35:35.931Z,95798.00
2024-04-21T04:36:35.861Z,95798.00
2024-04-21T04:37:35.851Z,95799.00
2024-04-21T04:38:35.831Z,95796.00
2024-04-21T04:39:35.862Z,95796.00
2024-04-21T04:40:35.897Z,95796.00
2024-04-21T04:41:35.861Z,95795.00
2024-04-21T04:42:35.990Z,95795.00
2024-04-21T04:43:35.881Z,95795.00
2024-04-21T04:44:35.882Z,95794.00
2024-04-21T04:45:35.884Z,95795.00
2024-04-21T04:46:35.946Z,95795.00
2024-04-21T04:47:36.086Z,95795.00
2024-04-21T04:48:36.053Z,95794.00
2024-04-21T04:49:36.118Z,95795.00
2024-04-21T04:50:36.183Z,95793.00
2024-04-21T04:51:36.252Z,95794.00
2024-04-21T04:52:36.321Z,95795.00
2024-04-21T04:53:36.388Z,95796.00
2024-04-21T04:54:36.442Z,95795.00
2024-04-21T04:55:36.504Z,95795.00
2024-04-21T04:56:36.557Z,95793.00
2024-04-21T04:57:36.619Z,95796.00
2024-04-21T04:58:36.682Z,95795.00
2024-04-21T04:59:36.741Z,95795.00
2024-04-21T05:00:36.806Z,95796.00
2024-04-21T05:01:36.980Z,95796.00
2024-04-21T05:02:36.989Z,95797.00
2024-04-21T05:03:37.060Z,95798.00
2024-04-21T05:04:37.218Z,95797.00
2024-04-21T05:05:37.147Z,95795.00
2024-04-21T05:06:37.182Z,95795.00
2024-04-21T05:07:37.299Z,95794.00
2024-04-21T05:08:37.312Z,95795.00
2024-04-21T05:09:37.384Z,95794.00
2024-04-21T05:10:37.417Z,95794.00
2024-04-21T05:11:37.529Z,95796.00
2024-04-21T05:12:37.533Z,95794.00
2024-04-21T05:13:37.598Z,95794.00
2024-04-21T05:14:37.689Z,95794.00
2024-04-21T05:15:37.719Z,95793.00
2024-04-21T05:16:37.796Z,95793.00
2024-04-21T05:17:37.925Z,95795.00
2024-04-21T05:18:37.901Z,95792.00
2024-04-21T05:19:37.971Z,95794.00
2024-04-21T05:20:38.028Z,95792.00
2024-04-21T05:21:38.098Z,95793.00
2024-04-21T05:22:38.167Z,95794.00
2024-04-21T05:23:38.216Z,95797.00
2024-04-21T05:24:38.286Z,95797.00
2024-04-21T05:25:38.335Z,95793.00
2024-04-21T05:26:38.395Z,95795.00
2024-04-21T05:27:38.447Z,95793.00
2024-04-21T05:28:45.566Z,95794.00
2024-04-21T05:29:39.536Z,95794.00
2024-04-21T05:30:38.530Z,95793.00
2024-04-21T05:31:38.508Z,95794.00
2024-04-21T05:32:38.585Z,95793.00
2024-04-21T05:33:38.528Z,95793.00
2024-04-21T05:34:38.522Z,95795.00
2024-04-21T05:35:38.510Z,95790.00
2024-04-21T05:36:38.501Z,95792.00
2024-04-21T05:37:38.513Z,95792.00
2024-04-21T05:38:38.532Z,95792.00
2024-04-21T05:39:38.547Z,95792.00
2024-04-21T05:40:38.532Z,95792.00
2024-04-21T05:41:38.539Z,95793.00
2024-04-21T05:42:38.550Z,95793.00
2024-04-21T05:43:38.557Z,95794.00
2024-04-21T05:44:43.436Z,95795.00
2024-04-21T05:45:38.533Z,95793.00
2024-04-21T05:46:38.544Z,95793.00
2024-04-21T05:47:38.628Z,95793.00
2024-04-21T05:48:38.549Z,95794.00
2024-04-21T05:49:38.548Z,95793.00
2024-04-21T05:50:38.561Z,95793.00
2024-04-21T05:51:38.543Z,95793.00
2024-04-21T05:52:38.567Z,95792.00
2024-04-21T05:53:38.552Z,95794.00
2024-04-21T05:54:38.584Z,95792.00
2024-04-21T05:55:38.585Z,95792.00
2024-04-21T05:56:38.571Z,95792.00
2024-04-21T05:57:38.578Z,95790.00
2024-04-21T05:58:38.581Z,95790.00
2024-04-21T05:59:38.585Z,95789.00
2024-04-21T06:00:38.591Z,95788.00
2024-04-21T06:01:38.675Z,95786.00
2024-04-21T06:02:38.592Z,95786.00
2024-04-21T06:03:38.658Z,95789.00
2024-04-21T06:04:38.644Z,95788.00
2024-04-21T06:05:38.590Z,95787.00
2024-04-21T06:06:38.571Z,95788.00
2024-04-21T06:07:38.590Z,95787.00
2024-04-21T06:08:38.568Z,95789.00
2024-04-21T06:09:38.577Z,95787.00
2024-04-21T06:10:38.582Z,95787.00
2024-04-21T06:11:38.614Z,95786.00
2024-04-21T06:12:38.607Z,95784.00
2024-04-21T06:13:38.691Z,95785.00
2024-04-21T06:14:38.659Z,95785.00
2024-04-21T06:15:38.674Z,95784.00
2024-04-21T06:16:38.691Z,95785.00
2024-04-21T06:17:38.753Z,95784.00
2024-04-21T06:18:38.858Z,95783.00
2024-04-21T06:19:38.836Z,95781.00
2024-04-21T06:20:38.860Z,95781.00
2024-04-21T06:21:38.931Z,95782.00
2024-04-21T06:22:38.980Z,95781.00
2024-04-21T06:23:39.051Z,95778.00
2024-04-21T06:24:39.113Z,95781.00
2024-04-21T06:25:39.201Z,95781.00
2024-04-21T06:26:41.759Z,95779.00
2024-04-21T06:27:39.253Z,95779.00
2024-04-21T06:28:39.241Z,95779.00
2024-04-21T06:29:39.259Z,95779.00
2024-04-21T06:30:39.255Z,95778.00
2024-04-21T06:31:39.247Z,95776.00
2024-04-21T06:32:39.298Z,95778.00
2024-04-21T06:33:39.245Z,95777.00
2024-04-21T06:34:44.273Z,95776.00
2024-04-21T06:35:39.255Z,95776.00
2024-04-21T06:36:39.248Z,95775.00
2024-04-21T06:37:39.250Z,95774.00
2024-04-21T06:38:39.263Z,95774.00
2024-04-21T06:39:49.418Z,95771.00
2024-04-21T06:40:39.320Z,95772.00
2024-04-21T06:41:39.271Z,95770.00
2024-04-21T06:42:39.246Z,95770.00
2024-04-21T06:43:39.268Z,95770.00
2024-04-21T06:44:39.265Z,95771.00
2024-04-21T06:45:39.262Z,95770.00
2024-04-21T06:46:39.258Z,95771.00
2024-04-21T06:47:39.379Z,95774.00
2024-04-21T06:48:39.322Z,95773.00
2024-04-21T06:49:44.346Z,95774.00
2024-04-21T06:50:39.395Z,95775.00
2024-04-21T06:51:39.263Z,95775.00
2024-04-21T06:52:39.267Z,95774.00
2024-04-21T06:53:39.287Z,95774.00
2024-04-21T06:54:39.279Z,95774.00
2024-04-21T06:55:39.292Z,95773.00
2024-04-21T06:56:39.304Z,95771.00
2024-04-21T06:57:39.303Z,95770.00
2024-04-21T06:58:39.298Z,95771.00
2024-04-21T06:59:39.290Z,95767.00
2024-04-21T07:00:39.331Z,95769.00
2024-04-21T07:01:39.361Z,95768.00
2024-04-21T07:02:39.395Z,95767.00
2024-04-21T07:03:39.389Z,95766.00
2024-04-21T07:04:39.392Z,95765.00
2024-04-21T07:05:39.481Z,95766.00
2024-04-21T07:06:39.518Z,95767.00
2024-04-21T07:07:39.587Z,95765.00
2024-04-21T07:08:39.662Z,95764.00
2024-04-21T07:09:39.728Z,95763.00
2024-04-21T07:10:39.785Z,95763.00
2024-04-21T07:11:39.905Z,95761.00
2024-04-21T07:12:39.914Z,95760.00
2024-04-21T07:13:39.973Z,95760.00
2024-04-21T07:14:40.028Z,95759.00
2024-04-21T07:15:40.104Z,95758.00
2024-04-21T07:16:40.142Z,95758.00
2024-04-21T07:17:40.255Z,95758.00
2024-04-21T07:18:40.356Z,95757.00
2024-04-21T07:19:40.380Z,95756.00
2024-04-21T07:20:40.373Z,95754.00
2024-04-21T07:21:40.431Z,95757.00
2024-04-21T07:22:40.517Z,95754.00
2024-04-21T07:23:40.573Z,95754.00
2024-04-21T07:24:40.638Z,95754.00
2024-04-21T07:25:40.721Z,95753.00
2024-04-21T07:26:40.865Z,95753.00
2024-04-21T07:27:40.835Z,95755.00
2024-04-21T07:28:40.882Z,95757.00
2024-04-21T07:29:42.157Z,95754.00
2024-04-21T07:30:40.994Z,95754.00
2024-04-21T07:31:40.988Z,95754.00
2024-04-21T07:32:41.084Z,95750.00
2024-04-21T07:33:41.014Z,95753.00
2024-04-21T07:34:41.082Z,95752.00
2024-04-21T07:35:41.151Z,95752.00
2024-04-21T07:36:41.202Z,95751.00
2024-04-21T07:37:41.281Z,95752.00
2024-04-21T07:38:41.372Z,95752.00
2024-04-21T07:39:41.381Z,95751.00
2024-04-21T07:40:41.439Z,95749.00
2024-04-21T07:41:41.509Z,95749.00
2024-04-21T07:42:41.584Z,95749.00
2024-04-21T07:43:41.710Z,95748.00
2024-04-21T07:44:41.702Z,95748.00
2024-04-21T07:45:41.790Z,95747.00
2024-04-21T07:46:41.811Z,95745.00
2024-04-21T07:47:41.937Z,95745.00
2024-04-21T07:48:41.955Z,95743.00
2024-04-21T07:49:42.000Z,95742.00
2024-04-21T07:50:42.086Z,95742.00
2024-04-21T07:51:42.147Z,95738.00
2024-04-21T07:52:42.196Z,95740.00
2024-04-21T07:53:42.273Z,95739.00
2024-04-21T07:54:42.339Z,95738.00
2024-04-21T07:55:42.415Z,95740.00
2024-04-21T07:56:42.471Z,95739.00
2024-04-21T07:57:42.519Z,95739.00
2024-04-21T07:58:42.606Z,95738.00
2024-04-21T07:59:42.647Z,95737.00
2024-04-21T08:00:42.737Z,95737.00
2024-04-21T08:01:42.891Z,95739.00
2024-04-21T08:02:42.946Z,95739.00
2024-04-21T08:03:42.936Z,95738.00
2024-04-21T08:04:42.980Z,95738.00
2024-04-21T08:05:43.039Z,95739.00
2024-04-21T08:06:43.090Z,95736.00
2024-04-21T08:07:43.151Z,95739.00
2024-04-21T08:08:43.225Z,95738.00
2024-04-21T08:09:43.303Z,95737.00
2024-04-21T08:10:50.750Z,95737.00
2024-04-21T08:11:44.381Z,95736.00
2024-04-21T08:12:43.378Z,95739.00
2024-04-21T08:13:43.357Z,95737.00
2024-04-21T08:14:43.366Z,95737.00
2024-04-21T08:15:43.393Z,95736.00
2024-04-21T08:16:43.361Z,95735.00
2024-04-21T08:17:43.480Z,95735.00
2024-04-21T08:18:43.520Z,95737.00
2024-04-21T08:19:43.406Z,95736.00
2024-04-21T08:20:43.410Z,95733.00
2024-04-21T08:21:43.423Z,95735.00
2024-04-21T08:22:43.409Z,95732.00
2024-04-21T08:23:43.452Z,95735.00
2024-04-21T08:24:43.524Z,95731.00
2024-04-21T08:25:43.600Z,95734.00
2024-04-21T08:26:43.649Z,95734.00
2024-04-21T08:27:43.732Z,95734.00
2024-04-21T08:28:43.785Z,95731.00
2024-04-21T08:29:43.839Z,95731.00
2024-04-21T08:30:43.904Z,95729.00
2024-04-21T08:31:44.047Z,95730.00
2024-04-21T08:32:44.157Z,95728.00
2024-04-21T08:33:44.105Z,95727.00
2024-04-21T08:34:44.150Z,95727.00
2024-04-21T08:35:44.221Z,95725.00
2024-04-21T08:36:44.292Z,95726.00
2024-04-21T08:37:44.365Z,95726.00
2024-04-21T08:38:44.435Z,95724.00
2024-04-21T08:39:44.496Z,95723.00
2024-04-21T08:40:44.567Z,95724.00
2024-04-21T08:41:45.522Z,95722.00
2024-04-21T08:42:44.683Z,95722.00
2024-04-21T08:43:44.719Z,95720.00
2024-04-21T08:44:44.778Z,95721.00
2024-04-21T08:45:44.814Z,95717.00
2024-04-21T08:46:44.889Z,95718.00
2024-04-21T08:47:44.941Z,95718.00
2024-04-21T08:48:44.946Z,95719.00
2024-04-21T08:49:45.012Z,95717.00
2024-04-21T08:50:45.071Z,95718.00
2024-04-21T08:51:45.077Z,95717.00
2024-04-21T08:52:45.155Z,95718.00
2024-04-21T08:53:45.188Z,95716.00
2024-04-21T08:54:45.234Z,95715.00
2024-04-21T08:55:45.303Z,95712.00
2024-04-21T08:56:45.387Z,95712.00
2024-04-21T08:57:45.465Z,95707.00
2024-04-21T08:58:45.530Z,95710.00
2024-04-21T08:59:45.583Z,95707.00
2024-04-21T09:00:45.714Z,95709.00
2024-04-21T09:01:45.821Z,95705.00
2024-04-21T09:02:45.795Z,95705.00
2024-04-21T09:03:45.916Z,95703.00
2024-04-21T09:04:46.034Z,95706.00
2024-04-21T09:05:46.058Z,95702.00
2024-04-21T09:06:53.362Z,95702.00
2024-04-21T09:07:53.339Z,95701.00
2024-04-21T09:08:53.342Z,95699.00
2024-04-21T09:09:53.342Z,95699.00
2024-04-21T09:10:53.362Z,95698.00
2024-04-21T09:11:53.338Z,95698.00
2024-04-21T09:12:53.342Z,95698.00
2024-04-21T09:13:53.399Z,95697.00
2024-04-21T09:14:53.422Z,95698.00
2024-04-21T09:15:53.525Z,95696.00
2024-04-21T09:16:53.569Z,95694.00
2024-04-21T09:17:53.745Z,95694.00
2024-04-21T09:18:53.873Z,95691.00
2024-04-21T09:19:53.784Z,95693.00
2024-04-21T09:20:53.838Z,95690.00
2024-04-21T09:21:53.943Z,95690.00
2024-04-21T09:22:53.980Z,95688.00
2024-04-21T09:23:54.058Z,95688.00
2024-04-21T09:24:54.127Z,95684.00
2024-04-21T09:25:54.198Z,95684.00
2024-04-21T09:26:54.290Z,95682.00
2024-04-21T09:27:54.387Z,95682.00
2024-04-21T09:28:54.443Z,95681.00
2024-04-21T09:29:54.483Z,95681.00
2024-04-21T09:30:54.566Z,95679.00
2024-04-21T09:31:54.606Z,95676.00
2024-04-21T09:32:54.824Z,95674.00
2024-04-21T09:33:54.789Z,95673.00
2024-04-21T09:34:54.829Z,95670.00
2024-04-21T09:35:54.891Z,95667.00
2024-04-21T09:36:55.041Z,95665.00
2024-04-21T09:37:55.049Z,95662.00
2024-04-21T09:38:55.229Z,95661.00
2024-04-21T09:39:55.238Z,95661.00
2024-04-21T09:40:55.285Z,95661.00
2024-04-21T09:41:55.385Z,95661.00
2024-04-21T09:42:55.470Z,95658.00
2024-04-21T09:43:55.553Z,95655.00
2024-04-21T09:44:55.599Z,95657.00
2024-04-21T09:45:55.711Z,95654.00
2024-04-21T09:46:55.750Z,95652.00
2024-04-21T09:47:55.850Z,95649.00
2024-04-21T09:48:55.889Z,95650.00
2024-04-21T09:49:55.959Z,95649.00
2024-04-21T09:50:56.013Z,95647.00
2024-04-21T09:51:56.123Z,95642.00
2024-04-21T09:52:56.161Z,95641.00
2024-04-21T09:53:56.253Z,95642.00
2024-04-21T09:54:56.297Z,95638.00
2024-04-21T09:55:56.359Z,95637.00
2024-04-21T09:56:56.408Z,95635.00
2024-04-21T09:57:56.533Z,95634.00
2024-04-21T09:58:56.549Z,95632.00
2024-04-21T09:59:56.615Z,95631.00
2024-04-21T10:00:56.695Z,95627.00
2024-04-21T10:01:56.735Z,95630.00
2024-04-21T10:02:57.032Z,95627.00
2024-04-21T10:03:56.839Z,95625.00
2024-04-21T10:04:56.878Z,95623.00
2024-04-21T10:05:56.926Z,95622.00
2024-04-21T10:06:56.990Z,95620.00
2024-04-21T10:07:57.025Z,95620.00
2024-04-21T10:08:57.088Z,95621.00
2024-04-21T10:09:57.200Z,95618.00
2024-04-21T10:10:57.236Z,95618.00
2024-04-21T10:11:57.278Z,95616.00
2024-04-21T10:12:57.359Z,95617.00
2024-04-21T10:13:57.393Z,95616.00
2024-04-21T10:14:57.480Z,95615.00
2024-04-21T10:15:57.543Z,95615.00
2024-04-21T10:16:57.611Z,95613.00
2024-04-21T10:17:57.816Z,95613.00
2024-04-21T10:18:57.742Z,95613.00
2024-04-21T10:19:57.773Z,95611.00
2024-04-21T10:20:57.825Z,95610.00
2024-04-21T10:21:58.020Z,95609.00
2024-04-21T10:22:57.976Z,95605.00
2024-04-21T10:23:58.021Z,95607.00
2024-04-21T10:24:58.083Z,95606.00
2024-04-21T10:25:58.163Z,95603.00
2024-04-21T10:26:58.191Z,95603.00
2024-04-21T10:27:58.285Z,95603.00
2024-04-21T10:28:58.323Z,95603.00
2024-04-21T10:29:58.384Z,95602.00
2024-04-21T10:30:58.502Z,95599.00
2024-04-21T10:31:58.529Z,95600.00
2024-04-21T10:32:58.575Z,95600.00
2024-04-21T10:33:58.685Z,95598.00
2024-04-21T10:34:58.727Z,95598.00
2024-04-21T10:35:58.810Z,95594.00
2024-04-21T10:36:58.869Z,95591.00
2024-04-21T10:37:58.937Z,95593.00
2024-04-21T10:38:59.073Z,95591.00
2024-04-21T10:39:59.150Z,95593.00
2024-04-21T10:40:59.159Z,95591.00
2024-04-21T10:41:59.216Z,95592.00
2024-04-21T10:42:59.274Z,95591.00
2024-04-21T10:43:59.382Z,95587.00
2024-04-21T10:44:59.379Z,95586.00
2024-04-21T10:45:59.843Z,95586.00
2024-04-21T10:46:59.492Z,95585.00
2024-04-21T10:47:59.729Z,95584.00
2024-04-21T10:48:59.655Z,95582.00
2024-04-21T10:49:59.643Z,95583.00
2024-04-21T10:50:59.685Z,95583.00
2024-04-21T10:51:59.771Z,95581.00
2024-04-21T10:52:59.812Z,95579.00
2024-04-21T10:53:59.860Z,95580.00
2024-04-21T10:54:59.980Z,95579.00
2024-04-21T10:56:00.031Z,95577.00
2024-04-21T10:57:00.047Z,95576.00
2024-04-21T10:58:00.129Z,95575.00
2024-04-21T10:59:00.179Z,95573.00
2024-04-21T11:00:00.254Z,95573.00
2024-04-21T11:01:00.336Z,95572.00
2024-04-21T11:02:00.420Z,95568.00
2024-04-21T11:03:00.381Z,95567.00
2024-04-21T11:04:00.460Z,95569.00
2024-04-21T11:05:00.472Z,95565.00
2024-04-21T11:06:00.550Z,95563.00
2024-04-21T11:07:00.644Z,95562.00
2024-04-21T11:08:00.631Z,95562.00
2024-04-21T11:09:00.690Z,95559.00
2024-04-21T11:10:00.895Z,95559.00
2024-04-21T11:11:00.846Z,95556.00
2024-04-21T11:12:00.875Z,95556.00
2024-04-21T11:13:00.939Z,95553.00
2024-04-21T11:14:00.998Z,95551.00
2024-04-21T11:15:01.102Z,95549.00
2024-04-21T11:16:01.192Z,95549.00
2024-04-21T11:17:01.269Z,95550.00
2024-04-21T11:18:01.441Z,95547.00
2024-04-21T11:19:01.519Z,95548.00
2024-04-21T11:20:01.532Z,95550.00
2024-04-21T11:21:01.629Z,95549.00
2024-04-21T11:22:01.706Z,95547.00
2024-04-21T11:23:01.771Z,95546.00
2024-04-21T11:24:01.872Z,95545.00
2024-04-21T11:25:01.999Z,95546.00
2024-04-21T11:26:02.048Z,95546.00
2024-04-21T11:27:02.131Z,95545.00
2024-04-21T11:28:02.272Z,95541.00
2024-04-21T11:29:02.312Z,95540.00
2024-04-21T11:30:02.395Z,95537.00
2024-04-21T11:31:02.508Z,95535.00
2024-04-21T11:32:02.625Z,95533.00
2024-04-21T11:33:02.740Z,95534.00
2024-04-21T11:34:02.780Z,95535.00
2024-04-21T11:35:02.814Z,95534.00
2024-04-21T11:36:02.902Z,95533.00
2024-04-21T11:37:03.024Z,95533.00
2024-04-21T11:38:03.063Z,95533.00
2024-04-21T11:39:03.156Z,95533.00
2024-04-21T11:40:03.335Z,95532.00
2024-04-21T11:41:03.339Z,95533.00
2024-04-21T11:42:03.428Z,95530.00
2024-04-21T11:43:03.547Z,95525.00
2024-04-21T11:44:03.609Z,95527.00
2024-04-21T11:45:03.719Z,95529.00